createdAt,value
2022-10-21T00:00:33.080Z,99588.06
2022-10-21T00:03:22.201Z,99568.03
2022-10-21T00:06:11.179Z,99552.28
2022-10-21T00:08:59.177Z,99527.53
2022-10-21T00:11:47.118Z,99533.56
2022-10-21T00:14:36.388Z,99534.50
2022-10-21T00:17:24.433Z,99520.59
2022-10-21T00:20:13.609Z,99511.44
2022-10-21T00:23:01.622Z,99505.66
2022-10-21T00:25:49.533Z,99525.16
2022-10-21T00:28:37.630Z,99510.19
2022-10-21T00:31:27.573Z,99498.72
2022-10-21T00:34:15.486Z,99490.06
2022-10-21T00:37:03.457Z,99506.63
2022-10-21T00:39:52.230Z,99502.63
2022-10-21T00:42:44.037Z,99511.25
2022-10-21T00:45:34.602Z,99515.53
2022-10-21T00:48:32.701Z,99575.31
2022-10-21T00:51:20.646Z,99604.06
2022-10-21T00:54:09.689Z,99589.09
2022-10-21T00:56:58.613Z,99555.97
2022-10-21T00:59:50.715Z,99505.31
2022-10-21T01:02:38.673Z,99450.34
2022-10-21T01:05:28.730Z,99405.56
2022-10-21T01:08:16.788Z,99393.16
2022-10-21T01:11:06.460Z,99443.31
2022-10-21T01:14:20.192Z,99443.81
2022-10-21T01:17:20.940Z,99441.88
2022-10-21T01:21:05.786Z,99442.91
2022-10-21T01:24:24.272Z,99412.47
2022-10-21T01:27:24.401Z,99463.06
2022-10-21T01:30:21.093Z,99478.97
2022-10-21T01:33:44.404Z,99386.84
2022-10-21T01:36:40.949Z,99459.31
2022-10-21T01:39:37.758Z,99453.63
2022-10-21T01:42:32.889Z,99442.19
2022-10-21T01:45:25.293Z,99442.88
2022-10-21T01:48:18.929Z,99437.03
2022-10-21T01:51:08.684Z,99455.91
2022-10-21T01:54:03.567Z,99457.75
2022-10-21T01:56:52.384Z,99432.63
2022-10-21T01:59:44.022Z,99418.69
2022-10-21T02:02:35.155Z,99417.53
2022-10-21T02:05:28.337Z,99429.75
2022-10-21T02:08:16.270Z,99438.53
2022-10-21T02:11:09.907Z,99417.66
2022-10-21T02:14:02.646Z,99418.84
2022-10-21T02:16:51.936Z,99415.41
2022-10-21T02:19:39.848Z,99416.56
2022-10-21T02:22:29.329Z,99411.56
2022-10-21T02:25:21.522Z,99402.72
2022-10-21T02:28:13.738Z,99404.03
2022-10-21T02:31:11.800Z,99394.53
2022-10-21T02:34:05.118Z,99386.78
2022-10-21T02:36:57.432Z,99381.25
2022-10-21T02:39:51.583Z,99387.53
2022-10-21T02:42:45.168Z,99394.72
2022-10-21T02:45:35.683Z,99402.84
2022-10-21T02:48:23.547Z,99392.75
2022-10-21T02:51:12.099Z,99391.88
2022-10-21T02:53:59.973Z,99393.03
2022-10-21T02:56:47.825Z,99373.31
2022-10-21T02:59:35.701Z,99364.50
2022-10-21T03:02:24.931Z,99351.75
2022-10-21T03:05:12.953Z,99338.72
2022-10-21T03:08:00.828Z,99323.38
2022-10-21T03:10:52.947Z,99329.38
2022-10-21T03:13:41.402Z,99324.38
2022-10-21T03:16:29.309Z,99328.16
2022-10-21T03:19:18.503Z,99327.66
2022-10-21T03:22:06.364Z,99334.81
2022-10-21T03:24:54.483Z,99341.13
2022-10-21T03:27:42.457Z,99344.78
2022-10-21T03:30:30.355Z,99319.59
2022-10-21T03:33:18.237Z,99335.91
2022-10-21T03:36:08.055Z,99348.19
2022-10-21T03:38:55.939Z,99339.53
2022-10-21T03:41:43.804Z,99342.28
2022-10-21T03:44:31.714Z,99332.38
2022-10-21T03:47:19.672Z,99342.66
2022-10-21T03:50:11.909Z,99343.06
2022-10-21T03:53:13.678Z,99330.03
2022-10-21T03:56:07.409Z,99333.47
2022-10-21T03:58:58.647Z,99325.59
2022-10-21T04:01:46.845Z,99327.22
2022-10-21T04:04:34.764Z,99316.19
2022-10-21T04:07:22.684Z,99315.81
2022-10-21T04:10:12.960Z,99307.97
2022-10-21T04:13:00.819Z,99312.75
2022-10-21T04:15:48.733Z,99304.09
2022-10-21T04:18:36.606Z,99296.94
2022-10-21T04:21:24.497Z,99295.00
2022-10-21T04:24:12.863Z,99290.28
2022-10-21T04:27:02.103Z,99298.19
2022-10-21T04:29:49.974Z,99275.88
2022-10-21T04:32:38.284Z,99296.94
2022-10-21T04:35:26.379Z,99293.34
2022-10-21T04:38:14.272Z,99281.97
2022-10-21T04:41:03.816Z,99289.44
2022-10-21T04:43:53.060Z,99283.13
2022-10-21T04:46:40.942Z,99281.97
2022-10-21T04:49:28.827Z,99278.41
2022-10-21T04:52:16.735Z,99275.19
2022-10-21T04:55:05.539Z,99261.03
2022-10-21T04:57:53.409Z,99264.75
2022-10-21T05:00:42.746Z,99265.09
2022-10-21T05:03:30.710Z,99278.03
2022-10-21T05:06:18.607Z,99263.00
2022-10-21T05:09:06.707Z,99266.25
2022-10-21T05:11:54.578Z,99251.53
2022-10-21T05:14:42.477Z,99250.44
2022-10-21T05:17:31.691Z,99244.44
2022-10-21T05:20:19.669Z,99238.84
2022-10-21T05:23:07.545Z,99237.41
2022-10-21T05:25:55.651Z,99244.00
2022-10-21T05:28:43.536Z,99246.63
2022-10-21T05:31:31.426Z,99256.22
2022-10-21T05:34:20.871Z,99254.66
2022-10-21T05:37:08.785Z,99270.78
2022-10-21T05:39:56.679Z,99261.53
2022-10-21T05:42:44.565Z,99270.41
2022-10-21T05:45:32.556Z,99271.56
2022-10-21T05:48:20.525Z,99270.53
2022-10-21T05:51:09.775Z,99273.59
2022-10-21T05:53:58.125Z,99283.06
2022-10-21T05:56:46.038Z,99279.06
2022-10-21T05:59:33.925Z,99283.00
2022-10-21T06:02:21.781Z,99272.09
2022-10-21T06:04:50.377Z,99272.34
2022-10-21T06:07:19.552Z,99273.22
2022-10-21T06:09:47.147Z,99279.25
2022-10-21T06:12:14.761Z,99279.06
2022-10-21T06:14:42.396Z,99277.06
2022-10-21T06:17:10.016Z,99282.47
2022-10-21T06:19:37.640Z,99276.03
2022-10-21T06:22:05.265Z,99288.63
2022-10-21T06:24:34.267Z,99278.38
2022-10-21T06:27:01.892Z,99277.34
2022-10-21T06:29:29.695Z,99275.28
2022-10-21T06:31:57.287Z,99275.66
2022-10-21T06:34:25.423Z,99279.13
2022-10-21T06:36:53.160Z,99274.00
2022-10-21T06:39:20.795Z,99281.53
2022-10-21T06:41:49.884Z,99285.31
2022-10-21T06:44:36.361Z,99289.16
2022-10-21T06:47:03.988Z,99297.59
2022-10-21T06:49:31.748Z,99293.13
2022-10-21T06:51:59.345Z,99301.88
2022-10-21T06:54:27.345Z,99311.38
2022-10-21T06:56:56.510Z,99317.56
2022-10-21T06:59:24.114Z,99318.28
2022-10-21T07:02:00.525Z,99325.19
2022-10-21T07:04:29.207Z,99332.50
2022-10-21T07:06:56.826Z,99344.31
2022-10-21T07:09:24.595Z,99348.56
2022-10-21T07:11:52.319Z,99345.22
2022-10-21T07:14:21.270Z,99351.53
2022-10-21T07:16:49.225Z,99352.50
2022-10-21T07:19:16.825Z,99349.66
2022-10-21T07:21:44.537Z,99347.66
2022-10-21T07:24:12.161Z,99352.72
2022-10-21T07:26:40.522Z,99352.00
2022-10-21T07:29:08.227Z,99355.66
2022-10-21T07:31:39.189Z,99361.44
2022-10-21T07:34:09.396Z,99360.22
2022-10-21T07:36:39.813Z,99360.75
2022-10-21T07:39:10.083Z,99363.09
2022-10-21T07:41:40.323Z,99355.31
2022-10-21T07:44:09.319Z,99337.13
2022-10-21T07:46:40.782Z,99357.09
2022-10-21T07:49:09.298Z,99360.50
2022-10-21T07:51:38.004Z,99333.66
2022-10-21T07:54:05.934Z,99353.19
2022-10-21T07:56:36.211Z,99327.75
2022-10-21T07:59:07.754Z,99347.59
2022-10-21T08:01:40.382Z,99357.75
2022-10-21T08:04:08.155Z,99353.03
2022-10-21T08:06:35.829Z,99359.38
2022-10-21T08:09:05.633Z,99356.16
2022-10-21T08:11:34.797Z,99361.34
2022-10-21T08:14:03.106Z,99356.66
2022-10-21T08:16:30.789Z,99366.72
2022-10-21T08:19:00.381Z,99367.94
2022-10-21T08:21:28.074Z,99364.00
2022-10-21T08:23:55.748Z,99355.13
2022-10-21T08:26:23.372Z,99361.38
2022-10-21T08:28:51.015Z,99363.44
2022-10-21T08:31:21.017Z,99360.16
2022-10-21T08:33:48.947Z,99364.22
2022-10-21T08:36:20.016Z,99353.84
2022-10-21T08:38:48.056Z,99343.38
2022-10-21T08:41:36.998Z,99336.69
2022-10-21T08:44:07.697Z,99337.44
2022-10-21T08:46:39.905Z,99357.59
2022-10-21T08:49:14.192Z,99358.44
2022-10-21T08:51:48.774Z,99353.75
2022-10-21T08:54:21.878Z,99346.44
2022-10-21T08:56:52.595Z,99339.19
2022-10-21T08:59:23.124Z,99350.28
2022-10-21T09:01:57.302Z,99348.81
2022-10-21T09:04:33.041Z,99363.88
2022-10-21T09:07:12.986Z,99357.03
2022-10-21T09:09:49.568Z,99320.69
2022-10-21T09:12:24.172Z,99356.38
2022-10-21T09:15:14.888Z,99358.81
2022-10-21T09:17:54.989Z,99361.22
2022-10-21T09:20:32.421Z,99360.91
2022-10-21T09:23:13.489Z,99366.63
2022-10-21T09:25:49.246Z,99368.34
2022-10-21T09:28:17.423Z,99365.75
2022-10-21T09:30:46.092Z,99362.97
2022-10-21T09:33:20.903Z,99345.63
2022-10-21T09:35:51.840Z,99359.25
2022-10-21T09:38:26.895Z,99358.84
2022-10-21T09:41:03.147Z,99369.75
2022-10-21T09:43:31.546Z,99374.03
2022-10-21T09:45:59.531Z,99369.19
2022-10-21T09:48:39.250Z,99377.16
2022-10-21T09:51:17.245Z,99375.97
2022-10-21T09:53:53.866Z,99383.06
2022-10-21T09:56:25.403Z,99384.50
2022-10-21T09:59:07.570Z,99373.59
2022-10-21T10:01:37.856Z,99387.81
2022-10-21T10:04:11.985Z,99384.59
2022-10-21T10:06:41.563Z,99382.03
2022-10-21T10:09:15.613Z,99383.03
2022-10-21T10:11:53.602Z,99393.63
2022-10-21T10:14:38.274Z,99395.28
2022-10-21T10:17:30.283Z,99399.19
2022-10-21T10:20:17.786Z,99397.59
2022-10-21T10:22:47.749Z,99400.81
2022-10-21T10:25:24.049Z,99396.25
2022-10-21T10:27:54.279Z,99401.00
2022-10-21T10:30:22.898Z,99414.75
2022-10-21T10:32:52.249Z,99411.81
2022-10-21T10:35:29.315Z,99415.09
2022-10-21T10:37:58.474Z,99434.50
2022-10-21T10:40:32.429Z,99422.34
2022-10-21T10:43:04.718Z,99438.78
2022-10-21T10:45:32.532Z,99441.91
2022-10-21T10:48:04.633Z,99447.84
2022-10-21T10:50:43.269Z,99454.25
2022-10-21T10:53:23.306Z,99451.06
2022-10-21T10:56:00.727Z,99448.13
2022-10-21T10:58:32.802Z,99442.00
2022-10-21T11:01:04.400Z,99446.97
2022-10-21T11:03:41.254Z,99442.59
2022-10-21T11:06:16.481Z,99438.66
2022-10-21T11:08:48.630Z,99424.53
2022-10-21T11:11:24.595Z,99435.41
2022-10-21T11:13:52.831Z,99425.25
2022-10-21T11:16:40.783Z,99426.19
2022-10-21T11:19:27.957Z,99436.06
2022-10-21T11:22:05.140Z,99443.09
2022-10-21T11:25:02.487Z,99445.41
2022-10-21T11:27:44.435Z,99437.88
2022-10-21T11:30:15.787Z,99417.22
2022-10-21T11:32:59.082Z,99418.75
2022-10-21T11:35:37.457Z,99415.13
2022-10-21T11:38:22.990Z,99402.63
2022-10-21T11:40:55.513Z,99396.16
2022-10-21T11:43:36.258Z,99400.41
2022-10-21T11:46:12.114Z,99410.00
2022-10-21T11:48:53.342Z,99425.19
2022-10-21T11:51:36.061Z,99438.31
2022-10-21T11:54:20.035Z,99417.13
2022-10-21T11:56:54.154Z,99422.31
2022-10-21T11:59:34.661Z,99426.78
2022-10-21T12:02:12.593Z,99425.22
2022-10-21T12:04:48.929Z,99434.06
2022-10-21T12:07:42.597Z,99433.38
2022-10-21T12:10:15.862Z,99432.66
2022-10-21T12:12:47.474Z,99427.47
2022-10-21T12:15:20.624Z,99431.34
2022-10-21T12:17:49.740Z,99421.13
2022-10-21T12:20:23.926Z,99423.25
2022-10-21T12:22:54.240Z,99427.31
2022-10-21T12:25:29.068Z,99415.25
2022-10-21T12:28:04.323Z,99418.38
2022-10-21T12:30:39.619Z,99423.84
2022-10-21T12:33:17.999Z,99381.00
2022-10-21T12:35:50.282Z,99433.31
2022-10-21T12:38:27.034Z,99432.41
2022-10-21T12:41:22.237Z,99437.88
2022-10-21T12:43:54.761Z,99446.28
2022-10-21T12:46:28.986Z,99422.84
2022-10-21T12:48:57.896Z,99426.66
2022-10-21T12:51:28.989Z,99433.13
2022-10-21T12:53:58.996Z,99424.03
2022-10-21T12:56:31.200Z,99430.31
2022-10-21T12:59:03.390Z,99431.34
2022-10-21T13:01:38.653Z,99432.09
2022-10-21T13:04:26.854Z,99440.19
2022-10-21T13:06:56.576Z,99442.16
2022-10-21T13:09:36.410Z,99435.25
2022-10-21T13:12:14.715Z,99432.53
2022-10-21T13:14:45.462Z,99416.50
2022-10-21T13:17:46.754Z,99417.75
2022-10-21T13:20:48.287Z,99419.19
2022-10-21T13:23:32.287Z,99422.09
2022-10-21T13:26:24.020Z,99417.28
2022-10-21T13:29:06.607Z,99418.88
2022-10-21T13:31:34.775Z,99412.72
2022-10-21T13:34:04.297Z,99412.19
2022-10-21T13:36:39.756Z,99403.63
2022-10-21T13:39:23.621Z,99404.19
2022-10-21T13:42:03.513Z,99413.38
2022-10-21T13:44:35.692Z,99412.34
2022-10-21T13:47:28.792Z,99363.97
2022-10-21T13:50:14.164Z,99420.88
2022-10-21T13:52:44.017Z,99414.47
2022-10-21T13:55:20.665Z,99418.03
2022-10-21T13:57:49.296Z,99426.53
2022-10-21T14:00:21.829Z,99423.50
2022-10-21T14:02:50.856Z,99424.44
2022-10-21T14:05:31.567Z,99415.31
2022-10-21T14:07:59.338Z,99418.66
2022-10-21T14:10:28.641Z,99408.78
2022-10-21T14:15:38.698Z,99396.09
2022-10-21T14:18:07.165Z,99404.75
2022-10-21T14:20:38.847Z,99409.75
2022-10-21T14:23:09.555Z,99403.94
2022-10-21T14:25:37.556Z,99407.03
2022-10-21T14:28:05.989Z,99401.13
2022-10-21T14:30:37.016Z,99404.19
2022-10-21T14:33:08.409Z,99384.88
2022-10-21T14:35:37.380Z,99389.72
2022-10-21T14:38:24.814Z,99381.69
2022-10-21T14:40:59.876Z,99392.88
2022-10-21T14:43:33.526Z,99381.59
2022-10-21T14:46:01.942Z,99391.38
2022-10-21T14:48:33.001Z,99386.50
2022-10-21T14:51:04.355Z,99347.31
2022-10-21T14:53:35.320Z,99376.97
2022-10-21T14:56:05.695Z,99367.59
2022-10-21T14:58:36.214Z,99367.66
2022-10-21T15:01:12.187Z,99362.53
2022-10-21T15:03:42.227Z,99367.34
2022-10-21T15:06:14.021Z,99366.91
2022-10-21T15:08:43.468Z,99378.59
2022-10-21T15:11:23.357Z,99350.88
2022-10-21T15:13:58.718Z,99325.50
2022-10-21T15:16:30.315Z,99369.34
2022-10-21T15:18:58.741Z,99367.41
2022-10-21T15:21:36.172Z,99376.53
2022-10-21T15:24:05.306Z,99321.88
2022-10-21T15:26:37.006Z,99381.16
2022-10-21T15:29:14.073Z,99380.53
2022-10-21T15:31:41.896Z,99386.53
2022-10-21T15:34:13.943Z,99388.59
2022-10-21T15:36:43.928Z,99376.69
2022-10-21T15:39:12.129Z,99380.72
2022-10-21T15:41:40.456Z,99371.94
2022-10-21T15:44:18.950Z,99387.03
2022-10-21T15:46:47.275Z,99385.97
2022-10-21T15:49:18.564Z,99393.19
2022-10-21T15:51:48.738Z,99385.38
2022-10-21T15:54:17.918Z,99385.47
2022-10-21T15:56:47.378Z,99388.06
2022-10-21T15:59:18.534Z,99395.69
2022-10-21T16:01:47.291Z,99400.03
2022-10-21T16:04:14.925Z,99403.88
2022-10-21T16:06:47.642Z,99394.06
2022-10-21T16:09:20.591Z,99384.50
2022-10-21T16:11:59.014Z,99385.72
2022-10-21T16:14:29.592Z,99375.66
2022-10-21T16:16:58.347Z,99376.34
2022-10-21T16:19:25.978Z,99372.25
2022-10-21T16:21:53.621Z,99379.19
2022-10-21T16:24:22.753Z,99339.16
2022-10-21T16:26:50.986Z,99377.44
2022-10-21T16:29:21.087Z,99375.09
2022-10-21T16:31:48.972Z,99375.09
2022-10-21T16:34:16.632Z,99371.53
2022-10-21T16:36:44.331Z,99364.94
2022-10-21T16:39:14.615Z,99380.91
2022-10-21T16:41:43.541Z,99380.44
2022-10-21T16:44:11.182Z,99382.03
2022-10-21T16:46:41.392Z,99379.59
2022-10-21T16:49:13.451Z,99377.25
2022-10-21T16:51:42.029Z,99382.97
2022-10-21T16:54:10.919Z,99384.28
2022-10-21T16:56:38.504Z,99385.53
2022-10-21T16:59:07.846Z,99405.50
2022-10-21T17:01:35.645Z,99405.25
2022-10-21T17:04:03.375Z,99398.81
2022-10-21T17:06:30.982Z,99394.22
2022-10-21T17:08:58.989Z,99400.94
2022-10-21T17:11:32.888Z,99411.56
2022-10-21T17:14:01.389Z,99414.50
2022-10-21T17:16:30.453Z,99411.84
2022-10-21T17:18:58.203Z,99415.47
2022-10-21T17:21:27.964Z,99402.03
2022-10-21T17:23:56.411Z,99399.59
2022-10-21T17:26:24.412Z,99410.66
2022-10-21T17:28:52.204Z,99408.44
2022-10-21T17:31:21.751Z,99403.41
2022-10-21T17:33:52.089Z,99408.06
2022-10-21T17:36:21.304Z,99414.22
2022-10-21T17:38:48.928Z,99416.91
2022-10-21T17:41:19.402Z,99416.31
2022-10-21T17:43:47.967Z,99421.09
2022-10-21T17:46:18.491Z,99424.59
2022-10-21T17:48:46.337Z,99428.81
2022-10-21T17:51:15.418Z,99429.22
2022-10-21T17:53:43.140Z,99435.19
2022-10-21T17:56:12.940Z,99424.16
2022-10-21T17:58:40.593Z,99433.63
2022-10-21T18:01:09.266Z,99439.78
2022-10-21T18:03:37.026Z,99438.34
2022-10-21T18:06:06.688Z,99434.63
2022-10-21T18:08:35.853Z,99399.22
2022-10-21T18:11:06.836Z,99431.03
2022-10-21T18:13:35.059Z,99414.88
2022-10-21T18:16:04.218Z,99413.34
2022-10-21T18:18:32.335Z,99412.31
2022-10-21T18:21:03.636Z,99415.94
2022-10-21T18:23:31.538Z,99407.25
2022-10-21T18:26:04.729Z,99413.56
2022-10-21T18:28:32.649Z,99407.06
2022-10-21T18:31:00.516Z,99402.22
2022-10-21T18:33:28.138Z,99406.03
2022-10-21T18:35:55.779Z,99403.81
2022-10-21T18:38:23.707Z,99404.22
2022-10-21T18:40:56.640Z,99408.84
2022-10-21T18:43:38.420Z,99408.63
2022-10-21T18:46:06.360Z,99408.84
2022-10-21T18:48:34.030Z,99408.16
2022-10-21T18:51:06.353Z,99405.94
2022-10-21T18:53:34.864Z,99405.81
2022-10-21T18:56:05.068Z,99413.09
2022-10-21T18:58:33.170Z,99422.22
2022-10-21T19:01:02.367Z,99420.78
2022-10-21T19:03:30.038Z,99433.06
2022-10-21T19:05:57.661Z,99431.94
2022-10-21T19:08:25.408Z,99429.63
2022-10-21T19:10:53.012Z,99430.44
2022-10-21T19:13:20.627Z,99428.63
2022-10-21T19:15:48.283Z,99430.78
2022-10-21T19:18:17.228Z,99444.03
2022-10-21T19:20:44.829Z,99449.34
2022-10-21T19:23:12.469Z,99446.09
2022-10-21T19:25:40.063Z,99453.09
2022-10-21T19:28:07.688Z,99446.78
2022-10-21T19:30:35.425Z,99445.22
2022-10-21T19:33:03.006Z,99439.22
2022-10-21T19:35:32.295Z,99451.84
2022-10-21T19:38:03.140Z,99441.28
2022-10-21T19:40:32.980Z,99440.50
2022-10-21T19:43:00.559Z,99442.94
2022-10-21T19:45:28.140Z,99441.59
2022-10-21T19:47:55.738Z,99439.09
2022-10-21T19:50:23.321Z,99442.72
2022-10-21T19:52:52.286Z,99439.09
2022-10-21T19:55:20.073Z,99449.75
2022-10-21T19:57:47.718Z,99452.22
2022-10-21T20:00:15.381Z,99445.25
2022-10-21T20:02:42.905Z,99443.97
2022-10-21T20:05:31.452Z,99453.97
2022-10-21T20:08:20.657Z,99455.00
2022-10-21T20:11:11.091Z,99449.59
2022-10-21T20:13:59.642Z,99433.56
2022-10-21T20:16:50.104Z,99431.16
2022-10-21T20:19:38.073Z,99430.09
2022-10-21T20:22:25.989Z,99428.78
2022-10-21T20:25:15.232Z,99425.81
2022-10-21T20:28:03.087Z,99417.97
2022-10-21T20:31:02.076Z,99422.81
2022-10-21T20:33:51.305Z,99447.47
2022-10-21T20:36:39.221Z,99455.44
2022-10-21T20:39:27.349Z,99455.84
2022-10-21T20:42:16.671Z,99468.81
2022-10-21T20:45:05.157Z,99484.53
2022-10-21T20:47:53.077Z,99487.03
2022-10-21T20:50:40.994Z,99475.28
2022-10-21T20:53:31.198Z,99464.56
2022-10-21T20:56:19.456Z,99475.97
2022-10-21T20:59:10.501Z,99467.16
2022-10-21T21:01:58.444Z,99469.47
2022-10-21T21:04:46.301Z,99460.56
2022-10-21T21:07:34.504Z,99462.59
2022-10-21T21:10:22.421Z,99468.66
2022-10-21T21:13:10.309Z,99462.63
2022-10-21T21:16:07.535Z,99446.22
2022-10-21T21:18:57.130Z,99441.88
2022-10-21T21:21:44.988Z,99443.16
2022-10-21T21:24:32.923Z,99457.81
2022-10-21T21:27:20.790Z,99458.88
2022-10-21T21:30:10.006Z,99455.81
2022-10-21T21:32:59.210Z,99460.38
2022-10-21T21:35:47.118Z,99471.97
2022-10-21T21:38:35.260Z,99475.44
2022-10-21T21:41:24.091Z,99471.06
2022-10-21T21:44:11.975Z,99486.06
2022-10-21T21:46:59.882Z,99487.59
2022-10-21T21:49:49.085Z,99480.22
2022-10-21T21:52:37.570Z,99468.63
2022-10-21T21:55:25.445Z,99471.72
2022-10-21T21:58:13.780Z,99446.44
2022-10-21T22:01:09.714Z,99477.00
2022-10-21T22:03:58.724Z,99476.72
2022-10-21T22:06:47.936Z,99477.09
2022-10-21T22:09:35.849Z,99478.16
2022-10-21T22:12:23.766Z,99473.31
2022-10-21T22:15:19.839Z,99467.81
2022-10-21T22:18:20.689Z,99447.13
2022-10-21T22:21:12.029Z,99441.56
2022-10-21T22:24:01.256Z,99452.31
2022-10-21T22:26:49.153Z,99438.75
2022-10-21T22:29:37.005Z,99440.44
2022-10-21T22:32:24.838Z,99454.94
2022-10-21T22:35:12.721Z,99451.66
2022-10-21T22:38:00.667Z,99446.97
2022-10-21T22:40:53.335Z,99452.09
2022-10-21T22:43:42.701Z,99455.31
2022-10-21T22:46:34.545Z,99472.66
2022-10-21T22:49:22.620Z,99451.47
2022-10-21T22:52:10.557Z,99461.16
2022-10-21T22:54:58.467Z,99450.19
2022-10-21T22:57:48.667Z,99457.03
2022-10-21T23:00:38.128Z,99462.00
2022-10-21T23:03:26.188Z,99461.78
2022-10-21T23:06:14.043Z,99460.81
2022-10-21T23:09:03.190Z,99460.94
2022-10-21T23:11:51.140Z,99461.53
2022-10-21T23:14:40.346Z,99438.47
2022-10-21T23:17:28.253Z,99447.91
2022-10-21T23:20:16.335Z,99450.84
2022-10-21T23:23:04.258Z,99464.66
2022-10-21T23:25:52.134Z,99473.31
2022-10-21T23:28:40.062Z,99503.63
2022-10-21T23:31:29.277Z,99503.53
2022-10-21T23:34:17.421Z,99484.41
2022-10-21T23:37:05.430Z,99498.72
2022-10-21T23:39:53.415Z,99501.97
2022-10-21T23:42:42.885Z,99516.53
2022-10-21T23:45:31.110Z,99524.97
2022-10-21T23:48:20.294Z,99531.38
2022-10-21T23:51:08.192Z,99520.13
2022-10-21T23:53:56.626Z,99515.91
2022-10-21T23:56:45.336Z,99509.19
2022-10-21T23:59:34.234Z,99511.25
